Time;durP1;ratioP1;P1;durP2;ratioP2;P2;SDS_P1;SDS_P2;PMS_P1;PMS_P2;Temp;Humidity;BMP_temperature;BMP_pressure;BME280_temperature;BME280_humidity;BME280_pressure;Samples;Min_cycle;Max_cycle;Signal;HPM_P1;HPM_P2
2022/06/12 00:01:57;;;;;;;;;3.00;1.50;;;;;21.05;42.85;101773.25;4977904;28;45268;-50
2022/06/12 00:04:23;;;;;;;;;2.00;2.00;;;;;21.02;42.71;101775.72;4978169;28;45422;-53
2022/06/12 00:06:49;;;;;;;;;3.80;2.00;;;;;20.77;43.30;101774.22;4987035;28;45608;-50
2022/06/12 00:09:15;;;;;;;;;2.00;2.00;;;;;20.85;42.82;101771.88;4997412;28;46657;-54
2022/06/12 00:11:41;;;;;;;;;1.00;1.00;;;;;20.80;42.98;101768.09;4995121;28;45392;-52
2022/06/12 00:14:07;;;;;;;;;1.80;1.80;;;;;20.81;43.07;101772.63;4997842;28;45335;-51
2022/06/12 00:16:33;;;;;;;;;3.75;1.50;;;;;20.78;43.05;101753.59;4997259;28;45427;-54
2022/06/12 00:18:59;;;;;;;;;2.40;2.00;;;;;20.82;43.17;101766.75;5029149;28;45885;-50
2022/06/12 00:21:25;;;;;;;;;2.00;1.00;;;;;20.75;43.27;101742.97;4997344;28;45381;-53
2022/06/12 00:23:58;;;;;;;;;2.50;1.25;;;;;20.70;43.47;101749.28;4997143;28;45318;-53
2022/06/12 00:26:29;;;;;;;;;3.60;1.80;;;;;20.85;43.30;101768.22;4997724;28;45377;-53
2022/06/12 00:29:08;;;;;;;;;3.00;1.00;;;;;20.85;43.35;101773.81;4996981;28;46426;-49
2022/06/12 00:31:35;;;;;;;;;1.40;1.00;;;;;20.81;43.26;101773.44;4997148;28;45349;-52
2022/06/12 00:34:01;;;;;;;;;1.40;1.40;;;;;20.49;43.88;101742.56;4997191;28;45339;-52
2022/06/12 00:36:27;;;;;;;;;3.20;1.60;;;;;20.62;43.75;101772.88;4997479;28;45283;-50
2022/06/12 00:38:52;;;;;;;;;2.50;1.00;;;;;20.65;43.89;101783.53;4996422;28;45552;-51
2022/06/12 00:41:18;;;;;;;;;4.75;2.75;;;;;20.50;44.09;101778.56;4996734;28;45601;-54
2022/06/12 00:43:43;;;;;;;;;2.00;2.00;;;;;20.47;44.28;101781.00;4996484;28;45442;-51
2022/06/12 00:46:31;;;;;;;;;4.00;1.75;;;;;20.45;44.11;101784.88;4996849;28;45391;-51
2022/06/12 00:48:57;;;;;;;;;0.40;0.40;;;;;20.39;44.56;101785.06;5022575;28;46460;-49
2022/06/12 00:51:22;;;;;;;;;1.50;1.50;;;;;20.13;44.79;101754.78;4996525;28;45426;-48
2022/06/12 00:53:54;;;;;;;;;3.50;1.75;;;;;20.27;44.76;101771.22;5028501;28;45374;-51
2022/06/12 00:56:30;;;;;;;;;2.00;0.60;;;;;20.27;45.01;101782.38;4982468;28;45397;-52
2022/06/12 00:59:00;;;;;;;;;1.60;1.60;;;;;20.14;45.10;101766.81;4987780;28;48129;-50
2022/06/12 01:01:48;;;;;;;;;2.40;0.60;;;;;20.14;45.14;101762.09;5011201;28;45426;-48
2022/06/12 01:06:59;;;;;;;;;3.20;2.20;;;;;20.18;45.33;101763.25;4989537;28;45394;-53
2022/06/12 01:09:28;;;;;;;;;2.00;2.00;;;;;19.99;45.17;101745.06;4976448;28;46877;-53
2022/06/12 01:11:54;;;;;;;;;1.00;1.00;;;;;19.96;45.65;101738.06;4975287;28;45340;-51
2022/06/12 01:14:23;;;;;;;;;1.75;1.50;;;;;20.00;45.48;101743.97;4976618;28;45463;-50
2022/06/12 01:16:49;;;;;;;;;2.00;2.00;;;;;20.10;45.38;101773.97;4959700;28;45474;-51
2022/06/12 01:19:38;;;;;;;;;1.75;1.50;;;;;20.02;45.76;101769.66;4974538;28;45481;-49
2022/06/12 01:22:35;;;;;;;;;5.00;0.80;;;;;20.08;45.83;101785.38;4974219;28;45371;-53
2022/06/12 01:25:21;;;;;;;;;0.80;0.80;;;;;19.98;45.96;101783.25;4973077;28;45325;-53
2022/06/12 01:28:06;;;;;;;;;2.00;1.00;;;;;19.94;45.93;101784.81;4975506;28;45188;-53
2022/06/12 01:30:38;;;;;;;;;3.00;3.00;;;;;19.89;46.34;101777.22;4976126;28;47022;-49
2022/06/12 01:33:16;;;;;;;;;3.00;3.00;;;;;19.88;46.36;101791.38;4974829;28;45395;-52
2022/06/12 01:36:06;;;;;;;;;1.20;1.20;;;;;19.67;46.17;101740.00;4976430;28;45224;-51
2022/06/12 01:38:37;;;;;;;;;5.40;3.00;;;;;19.92;46.25;101782.25;4960244;28;45394;-49
2022/06/12 01:41:31;;;;;;;;;2.40;2.40;;;;;19.94;46.33;101783.97;4975096;28;46769;-54
2022/06/12 01:44:03;;;;;;;;;0.60;0.60;;;;;19.82;46.20;101756.16;4976677;28;45433;-50
2022/06/12 01:46:40;;;;;;;;;3.60;2.80;;;;;19.92;46.09;101775.88;4975324;28;45337;-48
2022/06/12 01:49:06;;;;;;;;;3.80;2.00;;;;;19.95;46.32;101782.88;4976749;28;45341;-51
2022/06/12 01:51:35;;;;;;;;;4.00;3.20;;;;;19.92;46.21;101787.84;4974821;28;46184;-50
2022/06/12 01:54:13;;;;;;;;;3.00;1.80;;;;;19.77;46.41;101763.34;4976335;28;45308;-50
2022/06/12 01:57:00;;;;;;;;;2.20;2.00;;;;;19.56;46.32;101753.75;4974943;28;45457;-48
2022/06/12 01:59:38;;;;;;;;;0.80;0.80;;;;;19.53;46.33;101758.97;4969024;28;45577;-49
2022/06/12 02:02:14;;;;;;;;;3.80;2.00;;;;;19.63;46.40;101800.91;4962302;28;45826;-52
2022/06/12 02:04:48;;;;;;;;;2.80;2.00;;;;;19.59;46.78;101786.66;4985813;28;45395;-49
2022/06/12 02:07:25;;;;;;;;;3.40;2.80;;;;;19.47;46.96;101789.47;4986006;28;45356;-45
2022/06/12 02:09:56;;;;;;;;;3.00;3.00;;;;;19.51;46.75;101792.63;4994314;28;45415;-49
2022/06/12 02:15:31;;;;;;;;;1.80;1.00;;;;;19.42;46.99;101796.88;5007530;28;45297;-52
2022/06/12 02:18:03;;;;;;;;;1.60;1.60;;;;;19.36;46.44;101787.56;5027538;28;45406;-49
2022/06/12 02:20:32;;;;;;;;;4.80;2.40;;;;;19.27;47.00;101791.84;5010359;28;45451;-51
2022/06/12 02:22:57;;;;;;;;;3.00;1.00;;;;;19.22;46.88;101778.66;4994239;28;46069;-48
2022/06/12 02:25:31;;;;;;;;;2.75;2.75;;;;;18.87;46.99;101737.78;4995414;28;45394;-51
2022/06/12 02:28:01;;;;;;;;;1.80;1.80;;;;;19.19;46.99;101791.13;5010688;28;45371;-49
2022/06/12 02:30:38;;;;;;;;;2.40;2.20;;;;;19.09;47.52;101800.09;5010981;28;45273;-53
2022/06/12 02:33:07;;;;;;;;;4.00;1.60;;;;;19.09;47.21;101791.75;5010372;28;45441;-52
2022/06/12 02:35:52;;;;;;;;;3.00;3.00;;;;;19.19;46.98;101801.41;5030633;28;45415;-49
2022/06/12 02:38:19;;;;;;;;;5.00;3.00;;;;;18.95;47.17;101782.78;5030688;28;45426;-53
2022/06/12 02:40:47;;;;;;;;;1.00;1.00;;;;;19.03;47.67;101811.34;5030601;28;45315;-54
2022/06/12 02:43:16;;;;;;;;;3.80;2.20;;;;;18.95;47.97;101795.84;4998351;28;46593;-51
2022/06/12 02:45:51;;;;;;;;;3.80;3.80;;;;;19.05;47.72;101790.53;5013025;28;45423;-48
2022/06/12 02:48:17;;;;;;;;;2.80;2.20;;;;;19.21;47.10;101799.25;4997428;28;45433;-50
2022/06/12 02:51:16;;;;;;;;;3.00;3.00;;;;;19.21;47.08;101802.84;5030602;28;45512;-53
2022/06/12 02:53:50;;;;;;;;;2.00;2.00;;;;;19.19;46.98;101807.81;5029930;28;45901;-54
2022/06/12 02:56:25;;;;;;;;;2.80;1.60;;;;;19.14;46.80;101806.84;4998380;28;45354;-53
2022/06/12 02:58:57;;;;;;;;;4.80;0.80;;;;;19.03;47.29;101809.41;4997843;28;45208;-52
2022/06/12 03:01:34;;;;;;;;;3.80;2.20;;;;;18.75;47.52;101771.19;5029165;28;45382;-51
2022/06/12 03:04:03;;;;;;;;;3.40;2.20;;;;;18.92;47.73;101802.75;5012013;28;47056;-54
2022/06/12 03:06:29;;;;;;;;;4.00;3.20;;;;;18.93;47.58;101793.31;5028339;28;45391;-51
2022/06/12 03:08:56;;;;;;;;;7.00;3.40;;;;;18.91;47.62;101784.38;4978472;28;45842;-54
2022/06/12 03:11:36;;;;;;;;;5.60;2.40;;;;;18.75;47.82;101773.94;4977550;28;45392;-52
2022/06/12 03:14:04;;;;;;;;;3.40;1.40;;;;;18.90;47.86;101801.28;4977842;28;47616;-53
2022/06/12 03:16:31;;;;;;;;;3.80;3.80;;;;;18.81;47.95;101796.09;4977314;28;45991;-51
2022/06/12 03:19:03;;;;;;;;;2.00;1.20;;;;;18.74;47.82;101795.38;4978236;28;45494;-48
2022/06/12 03:21:41;;;;;;;;;2.00;2.00;;;;;18.75;48.11;101802.63;4977321;28;45444;-50
2022/06/12 03:24:09;;;;;;;;;3.40;2.60;;;;;18.76;48.14;101804.31;4953085;28;46870;-49
2022/06/12 03:26:51;;;;;;;;;2.80;1.60;;;;;18.71;47.82;101806.97;4996436;28;46629;-53
2022/06/12 03:29:38;;;;;;;;;2.00;1.00;;;;;18.68;47.94;101801.91;4997715;28;45324;-55
2022/06/12 03:32:12;;;;;;;;;5.00;3.40;;;;;18.70;48.22;101799.72;4997918;28;45389;-52
2022/06/12 03:35:09;;;;;;;;;5.00;3.00;;;;;18.56;48.50;101799.09;5029647;28;47268;-51
2022/06/12 03:37:40;;;;;;;;;3.20;3.20;;;;;18.58;48.56;101801.63;4997711;28;45362;-53
2022/06/12 03:40:08;;;;;;;;;3.20;2.00;;;;;18.61;48.51;101790.06;4997921;28;45415;-52
2022/06/12 03:43:00;;;;;;;;;2.00;1.00;;;;;18.68;48.38;101790.78;4998273;28;45373;-51
2022/06/12 03:45:33;;;;;;;;;1.80;1.80;;;;;18.43;48.54;101780.72;5028329;28;46844;-50
2022/06/12 03:48:23;;;;;;;;;3.20;2.00;;;;;18.52;48.61;101792.34;5012705;28;45628;-52
2022/06/12 03:50:56;;;;;;;;;3.60;2.00;;;;;18.57;48.56;101800.78;4996400;28;45269;-48
2022/06/12 03:53:30;;;;;;;;;0.00;0.00;;;;;18.60;48.33;101793.88;5029665;28;45451;-48
2022/06/12 03:58:53;;;;;;;;;4.00;3.00;;;;;18.58;48.17;101785.81;5010528;28;45332;-50
2022/06/12 04:01:19;;;;;;;;;2.20;1.20;;;;;18.65;48.37;101785.69;5012805;28;45403;-48
2022/06/12 04:03:45;;;;;;;;;4.00;3.60;;;;;18.66;48.09;101788.22;4997931;28;45459;-50
2022/06/12 04:06:18;;;;;;;;;1.25;1.00;;;;;18.42;48.03;101749.28;5029227;28;46463;-55
2022/06/12 04:08:50;;;;;;;;;2.00;2.00;;;;;18.43;48.20;101755.69;4993847;28;45377;-52
2022/06/12 04:11:17;;;;;;;;;1.40;1.40;;;;;18.49;48.36;101768.63;4976557;28;45594;-53
2022/06/12 04:13:42;;;;;;;;;4.00;3.60;;;;;18.47;48.55;101787.47;4976814;28;45459;-50
2022/06/12 04:16:08;;;;;;;;;3.25;2.00;;;;;18.37;48.59;101759.44;4976537;28;46591;-53
2022/06/12 04:18:33;;;;;;;;;2.75;2.50;;;;;18.52;48.74;101792.34;4977573;28;45366;-50
2022/06/12 04:21:01;;;;;;;;;3.75;3.00;;;;;18.62;48.62;101787.00;4977797;28;45388;-51
2022/06/12 04:23:52;;;;;;;;;2.20;2.20;;;;;18.54;48.67;101784.59;4977750;28;45599;-47
2022/06/12 04:26:47;;;;;;;;;3.80;2.40;;;;;18.63;48.58;101788.69;4938979;28;45988;-49
2022/06/12 04:29:13;;;;;;;;;3.40;1.80;;;;;18.58;48.40;101791.38;4967311;28;45666;-50
2022/06/12 04:31:42;;;;;;;;;2.75;1.50;;;;;18.55;48.63;101798.25;4977783;28;45407;-48
2022/06/12 04:34:11;;;;;;;;;1.40;1.00;;;;;18.48;48.77;101796.66;4977633;28;45363;-49
2022/06/12 04:36:36;;;;;;;;;3.00;2.00;;;;;18.42;48.74;101792.94;4972903;28;46988;-50
2022/06/12 04:39:03;;;;;;;;;3.25;1.75;;;;;18.42;49.01;101796.53;4976870;28;45485;-51
2022/06/12 04:41:30;;;;;;;;;3.80;3.00;;;;;18.25;49.08;101779.72;4977229;28;45382;-50
2022/06/12 04:43:55;;;;;;;;;2.00;2.00;;;;;18.50;48.69;101806.47;4977665;28;45460;-49
2022/06/12 04:46:21;;;;;;;;;4.50;3.00;;;;;18.39;48.40;101762.81;4977146;28;46867;-51
2022/06/12 04:48:48;;;;;;;;;4.00;2.75;;;;;18.62;48.21;101788.97;4975972;28;45238;-50
2022/06/12 04:51:13;;;;;;;;;2.00;2.00;;;;;18.74;47.88;101789.81;4959594;28;45593;-50
2022/06/12 04:53:39;;;;;;;;;3.00;1.50;;;;;18.63;47.76;101768.41;4977316;28;45547;-52
2022/06/12 04:56:06;;;;;;;;;3.20;2.00;;;;;18.68;47.85;101791.59;4977112;28;47101;-49
2022/06/12 04:58:32;;;;;;;;;5.00;1.20;;;;;18.65;47.68;101791.25;4976635;28;45451;-51
2022/06/12 05:00:57;;;;;;;;;4.50;1.25;;;;;18.63;47.32;101788.69;4977226;28;45339;-49
2022/06/12 05:03:23;;;;;;;;;3.00;2.50;;;;;18.67;47.77;101789.91;4977087;28;45443;-49
2022/06/12 05:05:48;;;;;;;;;2.50;1.00;;;;;18.77;47.26;101783.75;4975308;28;45735;-52
2022/06/12 05:08:14;;;;;;;;;2.25;2.25;;;;;18.74;47.45;101784.25;4986348;28;46010;-48
2022/06/12 05:10:40;;;;;;;;;3.00;2.00;;;;;18.62;47.68;101786.19;4996521;28;45451;-49
2022/06/12 05:13:06;;;;;;;;;2.75;2.00;;;;;18.62;47.87;101794.53;4995781;28;45251;-52
2022/06/12 05:15:31;;;;;;;;;3.00;1.75;;;;;18.64;47.64;101789.56;4994828;28;45951;-54
2022/06/12 05:17:57;;;;;;;;;1.75;1.75;;;;;18.60;47.74;101766.09;4996045;28;45293;-48
2022/06/12 05:20:26;;;;;;;;;1.50;1.50;;;;;18.72;47.54;101783.63;4996321;28;45302;-50
2022/06/12 05:22:51;;;;;;;;;3.00;2.00;;;;;18.56;47.95;101755.47;4996431;28;45365;-54
2022/06/12 05:25:17;;;;;;;;;3.75;2.00;;;;;18.79;47.37;101780.75;4996181;28;45537;-49
2022/06/12 05:27:42;;;;;;;;;2.00;2.00;;;;;18.69;47.52;101765.50;5011294;28;45406;-52
2022/06/12 05:30:10;;;;;;;;;2.25;2.00;;;;;18.66;47.77;101760.44;4996174;28;45351;-50
2022/06/12 05:32:36;;;;;;;;;3.60;1.60;;;;;18.80;47.35;101772.13;4995259;28;45396;-48
2022/06/12 05:35:02;;;;;;;;;2.50;2.00;;;;;18.81;46.98;101776.63;4995716;28;45359;-50
2022/06/12 05:37:27;;;;;;;;;2.75;2.75;;;;;18.89;46.89;101783.75;4994899;28;45664;-50
2022/06/12 05:39:52;;;;;;;;;2.50;2.50;;;;;18.84;47.14;101789.22;4995695;28;45303;-50
2022/06/12 05:42:18;;;;;;;;;3.00;2.00;;;;;18.77;46.95;101785.69;4996410;28;45232;-50
2022/06/12 05:44:44;;;;;;;;;2.20;2.20;;;;;18.82;47.19;101788.59;4995832;28;46839;-48
2022/06/12 05:47:10;;;;;;;;;4.50;2.75;;;;;18.76;46.75;101770.94;4994114;28;45500;-51
2022/06/12 05:49:35;;;;;;;;;2.60;2.00;;;;;18.81;47.00;101792.47;4995757;28;45436;-52
2022/06/12 05:52:01;;;;;;;;;4.00;3.00;;;;;18.74;47.28;101798.16;4995693;28;45394;-49
2022/06/12 05:54:26;;;;;;;;;2.50;2.00;;;;;18.74;47.15;101798.16;4995880;28;46632;-48
2022/06/12 05:56:52;;;;;;;;;3.00;1.00;;;;;18.69;47.20;101792.47;4995783;28;45373;-54
2022/06/12 05:59:17;;;;;;;;;3.25;0.50;;;;;18.78;47.06;101799.34;4995732;28;45335;-49
2022/06/12 06:01:43;;;;;;;;;5.00;3.00;;;;;18.79;47.00;101803.81;4995707;28;45424;-49
2022/06/12 06:04:08;;;;;;;;;4.00;1.50;;;;;18.81;46.85;101809.13;4995341;28;45461;-48
2022/06/12 06:06:43;;;;;;;;;1.25;1.25;;;;;18.73;46.41;101807.56;4995754;28;45336;-52
2022/06/12 06:09:08;;;;;;;;;1.00;1.00;;;;;18.76;46.09;101795.09;4977950;28;45427;-49
2022/06/12 06:11:34;;;;;;;;;2.50;2.25;;;;;18.75;46.09;101799.84;4978628;28;45312;-47
2022/06/12 06:13:59;;;;;;;;;2.25;2.25;;;;;18.74;45.82;101800.06;4978256;28;46094;-48
2022/06/12 06:16:25;;;;;;;;;2.00;2.00;;;;;18.76;46.49;101814.56;4977463;28;45506;-51
2022/06/12 06:18:50;;;;;;;;;3.50;2.25;;;;;18.87;46.31;101816.53;4978379;28;45323;-53
2022/06/12 06:21:16;;;;;;;;;2.75;2.75;;;;;18.85;46.35;101806.72;4978933;28;45509;-52
2022/06/12 06:23:42;;;;;;;;;3.00;2.00;;;;;18.76;45.85;101793.19;4978912;28;45521;-52
2022/06/12 06:26:08;;;;;;;;;2.60;2.00;;;;;18.90;46.12;101813.25;4978584;28;45304;-52
2022/06/12 06:28:34;;;;;;;;;4.00;2.60;;;;;18.81;46.12;101804.44;4977872;28;45522;-52
2022/06/12 06:31:00;;;;;;;;;3.75;3.00;;;;;18.99;45.69;101819.28;4977847;28;45489;-50
2022/06/12 06:33:25;;;;;;;;;2.50;2.25;;;;;18.99;45.33;101813.72;4978810;28;45637;-49
2022/06/12 06:35:51;;;;;;;;;3.25;3.25;;;;;18.77;46.11;101786.53;4978511;28;45377;-48
2022/06/12 06:38:16;;;;;;;;;5.00;2.75;;;;;18.97;46.28;101818.69;4977317;28;45365;-54
2022/06/12 06:40:42;;;;;;;;;4.25;4.25;;;;;19.03;46.31;101816.91;4977288;28;45466;-51
2022/06/12 06:43:08;;;;;;;;;3.50;3.50;;;;;18.93;45.79;101798.00;4976745;28;46330;-48
2022/06/12 06:48:18;;;;;;;;;4.00;2.80;;;;;19.15;45.20;101820.53;4978097;28;45432;-51
2022/06/12 06:50:44;;;;;;;;;2.75;1.25;;;;;19.14;44.98;101818.81;4978987;28;45434;-49
2022/06/12 06:53:09;;;;;;;;;3.25;2.00;;;;;19.18;44.79;101819.19;4978715;28;46770;-53
2022/06/12 06:55:36;;;;;;;;;3.75;1.00;;;;;19.18;44.53;101820.03;4977223;28;45371;-48
2022/06/12 06:58:07;;;;;;;;;2.00;2.00;;;;;19.22;44.08;101821.22;4946573;28;45584;-53
2022/06/12 07:00:33;;;;;;;;;1.00;1.00;;;;;19.25;44.21;101825.47;4976128;28;45497;-50
2022/06/12 07:02:59;;;;;;;;;4.75;3.00;;;;;19.05;44.35;101793.31;4976726;28;46719;-52
2022/06/12 07:05:24;;;;;;;;;1.00;1.00;;;;;19.26;43.82;101818.81;4976984;28;45273;-51
2022/06/12 07:07:50;;;;;;;;;3.25;1.50;;;;;19.28;44.04;101822.22;4981330;28;45473;-49
2022/06/12 07:10:21;;;;;;;;;3.00;3.00;;;;;19.26;44.06;101826.31;4978001;28;45544;-52
2022/06/12 07:12:47;;;;;;;;;1.00;1.00;;;;;19.15;44.15;101812.16;4958422;28;45560;-51
2022/06/12 07:15:13;;;;;;;;;3.50;3.00;;;;;19.03;44.05;101791.84;4958658;28;45810;-51
2022/06/12 07:17:39;;;;;;;;;3.75;3.00;;;;;19.25;44.40;101827.41;4975855;28;45798;-49
2022/06/12 07:20:05;;;;;;;;;2.00;2.00;;;;;19.12;44.40;101789.56;4976301;28;45552;-54
2022/06/12 07:22:31;;;;;;;;;2.60;1.40;;;;;19.41;43.84;101826.66;4977522;28;45977;-53
2022/06/12 07:24:56;;;;;;;;;3.00;3.00;;;;;19.45;43.64;101821.44;4977530;28;45342;-49
2022/06/12 07:27:21;;;;;;;;;8.50;8.50;;;;;19.59;43.46;101822.00;4975750;28;45518;-48
2022/06/12 07:29:47;;;;;;;;;3.25;3.25;;;;;19.42;43.11;101781.00;4977063;28;45536;-56
2022/06/12 07:32:12;;;;;;;;;8.50;4.25;;;;;19.71;43.13;101824.75;4951528;28;45989;-55
2022/06/12 07:34:38;;;;;;;;;1.50;1.50;;;;;19.63;43.58;101820.41;4980160;28;45585;-54
2022/06/12 07:37:04;;;;;;;;;3.50;2.75;;;;;19.56;43.42;101806.66;4973732;28;45442;-51
2022/06/12 07:39:30;;;;;;;;;4.20;3.40;;;;;19.62;43.13;101822.38;4969794;28;45602;-53
2022/06/12 07:41:56;;;;;;;;;3.20;3.20;;;;;19.74;43.00;101835.41;5007749;28;45784;-53
2022/06/12 07:44:23;;;;;;;;;3.25;3.25;;;;;19.76;43.06;101834.03;4993063;28;45490;-50
2022/06/12 07:46:49;;;;;;;;;1.00;1.00;;;;;19.81;42.72;101830.53;4975147;28;45510;-54
2022/06/12 07:49:16;;;;;;;;;5.40;1.40;;;;;19.88;42.92;101839.59;4972662;28;45507;-54
2022/06/12 07:51:41;;;;;;;;;3.00;3.00;;;;;19.95;42.72;101828.31;4985470;28;45624;-54
2022/06/12 07:54:07;;;;;;;;;4.00;2.75;;;;;19.92;43.08;101817.66;5008276;28;45802;-55
2022/06/12 07:56:32;;;;;;;;;3.25;3.25;;;;;20.00;43.00;101828.41;5008549;28;45367;-53
2022/06/12 07:58:58;;;;;;;;;1.00;1.00;;;;;19.89;42.93;101793.91;4975408;28;45458;-51
2022/06/12 08:01:24;;;;;;;;;5.00;3.25;;;;;20.03;42.96;101832.66;4973401;28;45740;-55
2022/06/12 08:03:50;;;;;;;;;2.00;2.00;;;;;20.05;43.34;101833.25;4973075;28;45486;-54
2022/06/12 08:06:16;;;;;;;;;2.50;2.50;;;;;20.13;43.55;101829.22;4976274;28;45542;-56
2022/06/12 08:08:41;;;;;;;;;2.00;2.00;;;;;20.22;43.08;101838.84;4997714;28;45582;-51
2022/06/12 08:11:07;;;;;;;;;3.25;3.00;;;;;20.26;42.94;101826.09;4970231;28;46078;-50
2022/06/12 08:13:32;;;;;;;;;5.75;3.75;;;;;20.37;43.40;101823.47;4972982;28;45438;-55
2022/06/12 08:15:58;;;;;;;;;4.75;3.00;;;;;20.38;42.77;101831.59;4972839;28;45402;-57
2022/06/12 08:18:23;;;;;;;;;3.50;3.50;;;;;20.33;43.35;101825.09;4973432;28;45445;-51
2022/06/12 08:20:52;;;;;;;;;2.25;2.25;;;;;20.31;43.88;101812.25;4971120;28;46670;-52
2022/06/12 08:23:32;;;;;;;;;3.20;2.40;;;;;20.40;43.52;101820.22;4954363;28;45437;-56
2022/06/12 08:26:16;;;;;;;;;3.20;3.20;;;;;20.47;43.53;101825.59;4957199;28;45516;-52
2022/06/12 08:28:48;;;;;;;;;2.60;1.80;;;;;20.47;43.34;101811.66;4991050;28;45429;-54
2022/06/12 08:31:16;;;;;;;;;2.00;2.00;;;;;20.46;43.24;101810.84;4991735;28;46307;-53
2022/06/12 08:33:42;;;;;;;;;5.00;4.00;;;;;20.50;43.28;101812.03;4979465;28;45911;-51
2022/06/12 08:36:10;;;;;;;;;1.20;1.20;;;;;20.36;43.64;101780.84;4967467;28;45775;-54
2022/06/12 08:38:35;;;;;;;;;4.20;2.60;;;;;20.62;43.47;101808.28;4953181;28;45569;-52
2022/06/12 08:41:07;;;;;;;;;5.50;1.00;;;;;20.69;43.59;101807.03;4969625;28;46936;-53
2022/06/12 08:43:42;;;;;;;;;4.60;3.80;;;;;20.79;43.49;101808.28;4972992;28;45443;-58
2022/06/12 08:46:33;;;;;;;;;5.20;4.20;;;;;20.89;42.99;101814.06;4954773;28;45508;-50
2022/06/12 08:49:04;;;;;;;;;3.40;3.00;;;;;20.97;42.82;101804.41;4973331;28;45414;-54
2022/06/12 08:51:58;;;;;;;;;4.40;1.60;;;;;20.93;42.08;101781.75;4972708;28;45759;-55
2022/06/12 08:54:51;;;;;;;;;1.20;1.20;;;;;21.10;40.92;101795.66;4971490;28;45480;-53
2022/06/12 08:57:22;;;;;;;;;4.60;2.60;;;;;21.15;40.68;101789.31;4968617;28;45459;-53
2022/06/12 08:59:59;;;;;;;;;2.20;2.20;;;;;21.28;40.61;101787.25;4971954;28;45402;-53
2022/06/12 09:02:30;;;;;;;;;2.80;2.80;;;;;21.22;40.40;101752.81;4971074;28;45666;-52
2022/06/12 09:04:56;;;;;;;;;1.60;1.60;;;;;21.37;40.69;101758.59;4971550;28;45806;-63
2022/06/12 09:07:52;;;;;;;;;2.40;1.80;;;;;21.53;40.03;101784.75;4955276;28;45772;-50
2022/06/12 09:10:43;;;;;;;;;3.20;1.60;;;;;21.43;40.17;101778.19;4946036;28;45389;-49
2022/06/12 09:13:28;;;;;;;;;2.20;1.00;;;;;21.45;38.28;101790.78;4972386;28;46500;-51
2022/06/12 09:16:04;;;;;;;;;2.40;2.40;;;;;21.55;38.74;101780.84;4972929;28;45851;-46
2022/06/12 09:18:55;;;;;;;;;1.00;1.00;;;;;21.61;38.85;101785.41;4971449;28;45769;-49
2022/06/12 09:21:50;;;;;;;;;2.20;2.20;;;;;21.70;39.19;101778.25;4971138;28;45555;-51
2022/06/12 09:24:39;;;;;;;;;6.40;3.80;;;;;21.33;38.76;101714.69;4955707;28;45689;-51
2022/06/12 09:27:37;;;;;;;;;6.60;5.20;;;;;21.80;38.62;101781.19;4976689;28;45510;-54
2022/06/12 09:30:08;;;;;;;;;3.80;3.20;;;;;21.67;38.23;101762.00;4977732;28;45394;-53
2022/06/12 09:32:48;;;;;;;;;2.60;2.20;;;;;21.91;38.95;101784.06;4984986;28;45542;-50
2022/06/12 09:35:38;;;;;;;;;0.80;0.80;;;;;21.99;38.13;101780.78;4981806;28;51330;-49
2022/06/12 09:38:41;;;;;;;;;2.60;2.00;;;;;21.98;36.78;101779.09;4972377;28;45413;-51
2022/06/12 09:41:13;;;;;;;;;5.00;4.00;;;;;21.91;38.20;101776.53;4962121;28;45997;-52
2022/06/12 09:43:46;;;;;;;;;4.40;4.40;;;;;21.82;39.15;101754.94;4954038;28;45528;-53
2022/06/12 09:46:30;;;;;;;;;3.00;3.00;;;;;21.99;39.36;101780.78;4970764;28;46301;-53
2022/06/12 09:48:57;;;;;;;;;3.40;3.40;;;;;22.02;39.49;101777.47;4972309;28;45339;-48
2022/06/12 09:51:26;;;;;;;;;3.40;1.40;;;;;22.09;39.46;101793.19;4972266;28;45480;-49
2022/06/12 09:53:57;;;;;;;;;2.20;1.20;;;;;22.16;39.33;101782.63;4958580;28;45409;-50
2022/06/12 09:56:29;;;;;;;;;1.80;1.80;;;;;22.17;39.40;101779.59;4958374;28;45893;-53
2022/06/12 09:59:11;;;;;;;;;2.00;2.00;;;;;22.11;39.52;101775.06;4986381;28;45902;-52
2022/06/12 10:01:39;;;;;;;;;4.20;1.60;;;;;22.13;39.41;101774.75;4971977;28;45885;-51
2022/06/12 10:04:31;;;;;;;;;0.80;0.80;;;;;22.21;39.43;101789.09;4954766;28;45508;-53
2022/06/12 10:07:08;;;;;;;;;1.20;1.20;;;;;22.17;39.49;101775.94;4970439;28;45505;-51
2022/06/12 10:09:37;;;;;;;;;3.00;2.00;;;;;22.23;39.66;101779.59;4973050;28;45742;-53
2022/06/12 10:12:07;;;;;;;;;1.20;1.20;;;;;22.04;39.73;101746.47;4977415;28;45474;-54
2022/06/12 10:14:50;;;;;;;;;2.60;1.40;;;;;22.29;39.40;101782.19;4970849;28;45720;-48
2022/06/12 10:17:37;;;;;;;;;2.80;1.40;;;;;22.27;38.98;101781.63;4954846;28;47542;-48
2022/06/12 10:20:18;;;;;;;;;1.40;1.40;;;;;22.29;39.45;101768.22;4972008;28;45448;-50
2022/06/12 10:22:46;;;;;;;;;1.20;1.20;;;;;22.38;39.19;101773.31;4954578;28;45601;-53
2022/06/12 10:25:21;;;;;;;;;1.60;0.40;;;;;22.23;38.94;101746.06;4969852;28;45677;-52
2022/06/12 10:27:50;;;;;;;;;2.20;1.00;;;;;22.50;38.68;101781.53;4980348;28;46753;-46
2022/06/12 10:30:39;;;;;;;;;1.00;1.00;;;;;22.49;38.74;101769.50;4972679;28;45386;-52
2022/06/12 10:33:22;;;;;;;;;1.60;1.60;;;;;22.29;39.01;101726.28;4961528;28;45541;-51
2022/06/12 10:35:53;;;;;;;;;2.80;2.80;;;;;22.50;39.26;101756.34;4952376;28;45740;-49
2022/06/12 10:38:23;;;;;;;;;4.60;4.00;;;;;22.46;39.49;101747.63;4971113;28;46700;-48
2022/06/12 10:41:06;;;;;;;;;3.60;2.40;;;;;22.44;39.88;101730.28;4970178;28;45424;-52
2022/06/12 10:43:36;;;;;;;;;4.80;4.80;;;;;22.66;39.91;101760.97;4970887;28;45434;-52
2022/06/12 10:46:16;;;;;;;;;2.20;2.20;;;;;22.70;39.18;101752.88;4958595;28;45884;-50
2022/06/12 10:48:43;;;;;;;;;2.20;2.20;;;;;22.74;39.67;101746.47;4960520;28;46562;-49
2022/06/12 10:51:34;;;;;;;;;2.00;2.00;;;;;22.67;39.84;101719.84;4971177;28;45535;-50
2022/06/12 10:54:02;;;;;;;;;5.00;3.00;;;;;22.23;39.83;101639.81;4971223;28;45487;-52
2022/06/12 10:56:44;;;;;;;;;5.40;3.00;;;;;22.80;39.45;101733.38;4969532;28;45469;-55
2022/06/12 10:59:31;;;;;;;;;4.20;3.20;;;;;22.87;39.16;101733.09;4970986;28;45451;-53
2022/06/12 11:02:06;;;;;;;;;3.80;3.00;;;;;22.96;39.31;101731.50;4953944;28;45842;-51
2022/06/12 11:04:46;;;;;;;;;7.00;4.00;;;;;22.80;39.30;101704.53;4955203;28;45806;-50
2022/06/12 11:07:39;;;;;;;;;4.00;4.00;;;;;22.93;39.21;101720.00;4953813;28;45458;-49
2022/06/12 11:10:19;;;;;;;;;3.00;3.00;;;;;23.00;39.56;101724.22;4975772;28;46491;-48
2022/06/12 11:13:06;;;;;;;;;3.20;3.20;;;;;22.96;39.56;101722.25;4973100;28;45826;-52
2022/06/12 11:15:44;;;;;;;;;3.00;3.00;;;;;22.99;39.37;101722.53;4972962;28;45470;-52
2022/06/12 11:18:14;;;;;;;;;4.00;3.60;;;;;23.02;39.32;101727.56;4974677;28;45692;-51
2022/06/12 11:20:53;;;;;;;;;2.40;2.40;;;;;22.49;38.19;101629.66;4972758;28;46731;-52
2022/06/12 11:23:21;;;;;;;;;3.20;2.20;;;;;23.09;39.17;101710.53;4972536;28;45424;-52
2022/06/12 11:26:16;;;;;;;;;3.80;3.80;;;;;23.18;38.32;101710.84;4955225;28;45464;-51
2022/06/12 11:28:58;;;;;;;;;4.60;3.00;;;;;23.25;37.79;101702.19;4965327;28;45909;-50
2022/06/12 11:31:33;;;;;;;;;5.20;2.60;;;;;23.31;37.21;101694.69;4973829;28;45580;-50
2022/06/12 11:33:59;;;;;;;;;4.80;2.80;;;;;23.17;36.60;101666.31;4983230;28;45413;-51
2022/06/12 11:36:32;;;;;;;;;3.50;2.00;;;;;23.21;35.55;101671.09;4986006;28;45689;-52
2022/06/12 11:38:57;;;;;;;;;3.40;2.20;;;;;23.42;36.18;101688.84;4966572;28;45465;-49
2022/06/12 11:41:36;;;;;;;;;7.00;3.75;;;;;23.47;36.17;101679.59;4977744;28;47078;-48
2022/06/12 11:44:34;;;;;;;;;2.20;2.00;;;;;23.53;35.22;101686.06;4972542;28;45795;-51
2022/06/12 11:47:17;;;;;;;;;3.00;3.00;;;;;23.59;34.88;101684.97;4972476;28;45379;-51
2022/06/12 11:50:05;;;;;;;;;2.00;2.00;;;;;23.64;33.76;101676.53;4972907;28;45494;-49
2022/06/12 11:52:49;;;;;;;;;3.60;2.80;;;;;23.62;34.38;101669.53;4969620;28;46396;-50
2022/06/12 11:55:33;;;;;;;;;2.60;2.40;;;;;23.62;34.82;101675.13;4964667;28;45779;-48
2022/06/12 11:58:08;;;;;;;;;1.40;1.40;;;;;23.65;34.30;101668.97;4973805;28;45848;-55
2022/06/12 12:00:55;;;;;;;;;4.00;4.00;;;;;23.61;34.79;101654.69;4972698;28;45455;-53